createdAt,value
2018-06-13T00:02:28.594Z,15.80
2018-06-13T00:04:57.903Z,15.80
2018-06-13T00:07:27.346Z,15.90
2018-06-13T00:09:56.818Z,15.90
2018-06-13T00:12:27.354Z,15.90
2018-06-13T00:14:57.445Z,15.90
2018-06-13T00:17:26.826Z,15.90
2018-06-13T00:19:56.170Z,15.90
2018-06-13T00:22:25.617Z,15.90
2018-06-13T00:24:54.994Z,15.90
2018-06-13T00:27:24.329Z,15.90
2018-06-13T00:29:53.699Z,15.70
2018-06-13T00:32:23.257Z,15.70
2018-06-13T00:34:52.642Z,15.70
2018-06-13T00:37:22.607Z,15.80
2018-06-13T00:39:51.833Z,15.80
2018-06-13T00:42:22.266Z,15.60
2018-06-13T00:44:51.660Z,15.50
2018-06-13T00:47:21.104Z,15.50
2018-06-13T00:49:50.423Z,15.40
2018-06-13T00:52:20.833Z,15.40
2018-06-13T00:54:50.223Z,15.30
2018-06-13T00:57:19.636Z,15.40
2018-06-13T00:59:49.019Z,15.40
2018-06-13T01:02:19.496Z,15.40
2018-06-13T01:04:48.886Z,15.30
2018-06-13T01:07:18.322Z,15.20
2018-06-13T01:09:47.626Z,15.20
2018-06-13T01:12:18.008Z,15.10
2018-06-13T01:14:47.400Z,15.10
2018-06-13T01:17:16.829Z,15.10
2018-06-13T01:19:46.233Z,15.10
2018-06-13T01:22:17.626Z,15.20
2018-06-13T01:24:47.059Z,15.10
2018-06-13T01:27:16.429Z,15.20
2018-06-13T01:29:45.760Z,15.20
2018-06-13T01:32:15.288Z,15.10
2018-06-13T01:34:44.669Z,15.20
2018-06-13T01:37:14.039Z,15.20
2018-06-13T01:39:43.430Z,15.20
2018-06-13T01:42:12.830Z,15.30
2018-06-13T01:44:42.231Z,15.40
2018-06-13T01:47:11.686Z,15.30
2018-06-13T01:49:41.107Z,15.30
2018-06-13T01:52:10.665Z,15.40
2018-06-13T01:54:40.064Z,15.40
2018-06-13T01:57:09.447Z,15.40
2018-06-13T01:59:38.853Z,15.20
2018-06-13T02:02:08.338Z,15.20
2018-06-13T02:04:37.777Z,15.30
2018-06-13T02:07:07.122Z,15.30
2018-06-13T02:09:36.541Z,15.30
2018-06-13T02:12:05.991Z,15.30
2018-06-13T02:14:35.413Z,15.30
2018-06-13T02:17:04.812Z,15.30
2018-06-13T02:19:34.250Z,15.30
2018-06-13T02:22:04.679Z,15.30
2018-06-13T02:24:34.053Z,15.30
2018-06-13T02:27:03.439Z,15.30
2018-06-13T02:29:32.813Z,15.30
2018-06-13T02:32:03.294Z,15.30
2018-06-13T02:34:32.689Z,15.30
2018-06-13T02:37:02.070Z,15.20
2018-06-13T02:42:01.629Z,15.10
2018-06-13T02:44:31.005Z,15.10
2018-06-13T02:47:00.427Z,15.10
2018-06-13T02:49:29.905Z,15.20
2018-06-13T02:51:59.280Z,15.20
2018-06-13T02:54:28.593Z,15.20
2018-06-13T02:56:57.962Z,15.20
2018-06-13T02:59:27.357Z,15.20
2018-06-13T03:01:56.833Z,15.20
2018-06-13T03:04:26.226Z,15.20
2018-06-13T03:06:55.590Z,15.20
2018-06-13T03:09:24.974Z,15.10
2018-06-13T03:11:56.397Z,15.10
2018-06-13T03:14:25.716Z,15.00
2018-06-13T03:16:55.094Z,15.10
2018-06-13T03:19:24.456Z,15.00
2018-06-13T03:21:56.016Z,15.00
2018-06-13T03:24:25.330Z,15.00
2018-06-13T03:26:54.782Z,15.00
2018-06-13T03:29:24.163Z,15.00
2018-06-13T03:34:22.633Z,14.90
2018-06-13T03:36:51.981Z,14.80
2018-06-13T03:39:21.375Z,14.80
2018-06-13T03:44:19.914Z,14.70
2018-06-13T03:46:49.330Z,14.80
2018-06-13T03:49:25.821Z,14.80
2018-06-13T03:51:54.923Z,14.90
2018-06-13T03:54:24.017Z,14.90
2018-06-13T03:56:53.150Z,14.90
2018-06-13T03:59:22.338Z,14.90
2018-06-13T04:01:51.751Z,14.80
2018-06-13T04:04:21.057Z,14.80
2018-06-13T04:06:50.490Z,14.90
2018-06-13T04:09:19.818Z,14.90
2018-06-13T04:11:51.243Z,14.90
2018-06-13T04:14:20.630Z,15.00
2018-06-13T04:16:49.997Z,15.00
2018-06-13T04:19:19.334Z,15.00
2018-06-13T04:21:49.765Z,15.00
2018-06-13T04:24:19.158Z,15.00
2018-06-13T04:26:48.583Z,15.00
2018-06-13T04:29:17.958Z,15.10
2018-06-13T04:31:49.392Z,15.10
2018-06-13T04:34:18.753Z,15.20
2018-06-13T04:36:48.153Z,15.20
2018-06-13T04:39:17.511Z,15.30
2018-06-13T04:41:47.919Z,15.30
2018-06-13T04:44:17.322Z,15.30
2018-06-13T04:46:46.681Z,15.20
2018-06-13T04:49:16.135Z,15.30
2018-06-13T04:51:46.557Z,15.30
2018-06-13T04:54:15.953Z,15.30
2018-06-13T04:56:58.235Z,15.30
2018-06-13T04:59:27.633Z,15.40
2018-06-13T05:01:56.997Z,15.40
2018-06-13T05:04:26.485Z,15.50
2018-06-13T05:06:55.907Z,15.50
2018-06-13T05:09:25.323Z,15.60
2018-06-13T05:11:54.866Z,15.50
2018-06-13T05:14:24.230Z,15.50
2018-06-13T05:16:53.645Z,15.40
2018-06-13T05:19:22.985Z,15.40
2018-06-13T05:21:53.447Z,15.40
2018-06-13T05:24:22.862Z,15.40
2018-06-13T05:26:52.219Z,15.40
2018-06-13T05:29:21.648Z,15.40
2018-06-13T05:31:52.082Z,15.40
2018-06-13T05:34:21.515Z,15.20
2018-06-13T05:36:50.894Z,15.30
2018-06-13T05:39:20.355Z,15.10
2018-06-13T05:41:51.873Z,15.10
2018-06-13T05:44:21.244Z,15.10
2018-06-13T05:46:50.702Z,15.00
2018-06-13T05:49:20.141Z,15.00
2018-06-13T05:51:49.517Z,15.10
2018-06-13T05:54:18.900Z,15.10
2018-06-13T05:56:48.329Z,15.10
2018-06-13T05:59:17.769Z,15.10
2018-06-13T06:01:47.252Z,15.00
2018-06-13T06:04:16.644Z,15.10
2018-06-13T06:06:46.043Z,15.20
2018-06-13T06:09:15.285Z,15.00
2018-06-13T06:11:44.487Z,15.00
2018-06-13T06:14:13.883Z,15.00
2018-06-13T06:16:43.299Z,14.90
2018-06-13T06:19:12.703Z,14.90
2018-06-13T06:21:42.090Z,15.00
2018-06-13T06:24:11.585Z,14.90
2018-06-13T06:26:40.986Z,14.80
2018-06-13T06:29:10.362Z,14.80
2018-06-13T06:31:40.742Z,14.90
2018-06-13T06:34:10.046Z,14.80
2018-06-13T06:36:39.367Z,14.80
2018-06-13T06:39:09.258Z,14.90
2018-06-13T06:41:38.649Z,14.90
2018-06-13T06:44:08.046Z,14.90
2018-06-13T06:46:37.409Z,14.90
2018-06-13T06:49:06.766Z,14.90
2018-06-13T06:51:36.201Z,15.00
2018-06-13T06:54:05.626Z,14.90
2018-06-13T06:56:34.949Z,14.90
2018-06-13T06:59:04.333Z,15.00
2018-06-13T07:01:34.717Z,15.10
2018-06-13T07:04:04.022Z,15.30
2018-06-13T07:06:33.401Z,15.40
2018-06-13T07:09:02.876Z,15.30
2018-06-13T07:11:32.465Z,15.40
2018-06-13T07:14:01.980Z,15.50
2018-06-13T07:16:31.474Z,15.70
2018-06-13T07:19:00.882Z,15.50
2018-06-13T07:21:37.969Z,15.60
2018-06-13T07:24:07.119Z,15.60
2018-06-13T07:26:36.477Z,15.80
2018-06-13T07:29:05.938Z,16.00
2018-06-13T07:31:36.383Z,15.80
2018-06-13T07:34:05.757Z,15.90
2018-06-13T07:36:35.118Z,16.10
2018-06-13T07:39:06.372Z,16.00
2018-06-13T07:41:37.034Z,15.80
2018-06-13T07:44:06.502Z,15.80
2018-06-13T07:46:35.912Z,16.10
2018-06-13T07:49:05.326Z,16.00
2018-06-13T07:51:39.693Z,16.20
2018-06-13T07:54:08.971Z,16.30
2018-06-13T07:56:38.301Z,16.40
2018-06-13T07:59:07.738Z,16.60
2018-06-13T08:01:38.173Z,16.70
2018-06-13T08:06:36.587Z,16.70
2018-06-13T08:09:08.320Z,16.90
2018-06-13T08:11:37.802Z,16.70
2018-06-13T08:14:07.204Z,16.80
2018-06-13T08:16:36.646Z,17.10
2018-06-13T08:19:06.019Z,17.40
2018-06-13T08:21:36.496Z,17.30
2018-06-13T08:24:05.862Z,17.50
2018-06-13T08:26:35.140Z,17.60
2018-06-13T08:29:04.601Z,17.80
2018-06-13T08:31:35.027Z,17.80
2018-06-13T08:34:04.423Z,17.70
2018-06-13T08:36:33.822Z,17.60
2018-06-13T08:48:33.489Z,17.30
2018-06-13T08:51:29.272Z,17.10
2018-06-13T08:53:58.438Z,17.10
2018-06-13T08:56:28.465Z,16.90
2018-06-13T08:58:57.793Z,16.70
2018-06-13T09:01:32.960Z,16.50
2018-06-13T09:04:02.382Z,16.50
2018-06-13T09:06:31.846Z,16.50
2018-06-13T09:09:01.306Z,16.60
2018-06-13T09:11:32.585Z,16.70
2018-06-13T09:16:31.060Z,16.80
2018-06-13T09:19:00.465Z,16.90
2018-06-13T09:21:33.970Z,16.90
2018-06-13T09:24:03.307Z,16.90
2018-06-13T09:26:32.745Z,17.00
2018-06-13T09:29:02.168Z,17.10
2018-06-13T09:31:36.390Z,17.10
2018-06-13T09:34:05.846Z,17.00
2018-06-13T09:36:35.203Z,16.80
2018-06-13T09:39:07.044Z,16.90
2018-06-13T09:41:40.402Z,16.90
2018-06-13T09:44:09.760Z,17.00
2018-06-13T09:46:39.125Z,17.00
2018-06-13T09:49:08.491Z,17.10
2018-06-13T09:51:45.375Z,17.20
2018-06-13T09:54:14.772Z,17.20
2018-06-13T09:56:44.096Z,17.00
2018-06-13T09:59:13.553Z,17.10
2018-06-13T10:01:53.875Z,17.50
2018-06-13T10:04:23.410Z,17.40
2018-06-13T10:06:52.826Z,17.20
2018-06-13T10:09:22.214Z,17.10
2018-06-13T10:11:51.655Z,17.00
2018-06-13T10:14:21.123Z,17.00
2018-06-13T10:16:50.463Z,16.80
2018-06-13T10:19:19.854Z,16.80
2018-06-13T10:21:50.248Z,16.80
2018-06-13T10:24:19.674Z,16.60
2018-06-13T10:26:49.034Z,16.70
2018-06-13T10:29:18.402Z,16.60
2018-06-13T10:31:55.039Z,16.70
2018-06-13T10:34:24.582Z,16.60
2018-06-13T10:36:53.933Z,16.50
2018-06-13T10:41:52.389Z,17.00
2018-06-13T10:44:21.832Z,17.00
2018-06-13T10:46:51.344Z,17.20
2018-06-13T10:49:20.779Z,17.40
2018-06-13T10:51:51.182Z,17.50
2018-06-13T10:54:20.709Z,17.70
2018-06-13T10:56:50.122Z,17.90
2018-06-13T10:59:19.560Z,18.00
2018-06-13T11:01:50.993Z,18.50
2018-06-13T11:04:20.358Z,18.70
2018-06-13T11:06:49.742Z,18.80
2018-06-13T11:09:19.142Z,18.90
2018-06-13T11:14:39.494Z,19.30
2018-06-13T11:17:08.823Z,19.50
2018-06-13T11:19:38.194Z,19.30
2018-06-13T11:22:22.491Z,19.20
2018-06-13T11:24:51.878Z,19.10
2018-06-13T11:27:21.252Z,18.90
2018-06-13T11:29:50.673Z,18.70
2018-06-13T11:32:35.490Z,18.40
2018-06-13T11:35:06.475Z,18.20
2018-06-13T11:37:36.830Z,18.30
2018-06-13T11:40:06.907Z,18.30
2018-06-13T11:42:40.027Z,18.30
2018-06-13T11:45:09.379Z,18.40
2018-06-13T11:47:39.221Z,18.40
2018-06-13T11:50:08.588Z,18.60
2018-06-13T11:52:40.096Z,18.80
2018-06-13T11:55:09.498Z,18.50
2018-06-13T11:57:38.917Z,18.50
2018-06-13T12:00:08.410Z,18.50
2018-06-13T12:02:38.857Z,18.50
2018-06-13T12:05:08.331Z,18.60
2018-06-13T12:07:37.723Z,17.80
2018-06-13T12:10:07.158Z,18.20
2018-06-13T12:12:37.541Z,18.20
2018-06-13T12:15:06.919Z,18.10
2018-06-13T12:17:36.326Z,18.10
2018-06-13T12:20:05.690Z,18.30
2018-06-13T12:22:42.480Z,17.90
2018-06-13T12:25:11.801Z,17.80
2018-06-13T12:27:42.737Z,18.20
2018-06-13T12:30:12.145Z,18.30
2018-06-13T12:32:43.666Z,18.40
2018-06-13T12:35:13.108Z,18.70
2018-06-13T12:37:42.546Z,19.00
2018-06-13T12:40:11.923Z,19.10
2018-06-13T12:42:49.679Z,19.00
2018-06-13T12:45:19.076Z,19.40
2018-06-13T12:47:48.436Z,19.60
2018-06-13T12:50:17.777Z,20.10
2018-06-13T12:55:31.714Z,20.60
2018-06-13T12:58:01.957Z,20.00
2018-06-13T13:00:31.342Z,19.90
2018-06-13T13:03:01.817Z,20.20
2018-06-13T13:05:31.170Z,20.00
2018-06-13T13:08:00.582Z,19.90
2018-06-13T13:10:33.578Z,19.60
2018-06-13T13:13:03.070Z,19.60
2018-06-13T13:15:32.546Z,19.30
2018-06-13T13:18:01.934Z,19.00
2018-06-13T13:20:31.406Z,18.90
2018-06-13T13:23:21.661Z,18.10
2018-06-13T13:25:51.002Z,18.30
2018-06-13T13:28:32.650Z,18.90
2018-06-13T13:33:35.319Z,19.20
2018-06-13T13:36:06.316Z,19.30
2018-06-13T13:38:37.573Z,19.50
2018-06-13T13:41:11.022Z,19.50
2018-06-13T13:43:40.302Z,19.40
2018-06-13T13:46:09.791Z,19.40
2018-06-13T13:48:39.235Z,19.50
2018-06-13T13:51:08.785Z,19.00
2018-06-13T13:53:45.641Z,19.40
2018-06-13T13:56:14.739Z,19.30
2018-06-13T13:58:44.075Z,19.70
2018-06-13T14:01:14.088Z,19.70
2018-06-13T14:03:43.561Z,19.80
2018-06-13T14:06:14.362Z,19.70
2018-06-13T14:08:43.798Z,19.70
2018-06-13T14:11:47.856Z,19.50
2018-06-13T14:14:16.991Z,19.50
2018-06-13T14:16:46.109Z,19.80
2018-06-13T14:19:15.193Z,19.80
2018-06-13T14:21:49.091Z,19.70
2018-06-13T14:24:18.183Z,19.50
2018-06-13T14:26:47.250Z,19.70
2018-06-13T14:29:16.589Z,19.50
2018-06-13T14:34:24.272Z,19.50
2018-06-13T14:36:53.687Z,20.10
2018-06-13T14:39:23.044Z,19.40
2018-06-13T14:42:09.192Z,19.80
2018-06-13T14:44:38.616Z,19.30
2018-06-13T14:47:07.917Z,19.90
2018-06-13T14:49:37.298Z,20.20
2018-06-13T14:52:14.177Z,20.20
2018-06-13T14:54:43.573Z,19.80
2018-06-13T14:57:12.967Z,20.10
2018-06-13T14:59:42.439Z,19.80
2018-06-13T15:02:19.644Z,20.10
2018-06-13T15:04:49.091Z,20.70
2018-06-13T15:07:18.483Z,20.80
2018-06-13T15:09:47.839Z,20.90
2018-06-13T15:12:26.366Z,20.90
2018-06-13T15:14:55.680Z,20.60
2018-06-13T15:17:25.071Z,20.60
2018-06-13T15:19:54.420Z,20.70
2018-06-13T15:22:23.882Z,20.10
2018-06-13T15:24:53.243Z,20.30
2018-06-13T15:27:22.639Z,20.60
2018-06-13T15:29:51.999Z,20.70
2018-06-13T15:32:30.958Z,20.30
2018-06-13T15:35:00.309Z,20.80
2018-06-13T15:37:29.786Z,21.30
2018-06-13T15:39:59.221Z,20.80
2018-06-13T15:42:34.243Z,20.90
2018-06-13T15:45:03.665Z,20.20
2018-06-13T15:47:33.466Z,20.80
2018-06-13T15:50:02.888Z,21.00
2018-06-13T15:52:34.324Z,21.10
2018-06-13T15:55:03.845Z,21.20
2018-06-13T16:00:02.406Z,20.80
2018-06-13T16:02:37.604Z,21.00
2018-06-13T16:05:06.951Z,20.90
2018-06-13T16:07:36.287Z,20.30
2018-06-13T16:10:05.649Z,19.80
2018-06-13T16:12:35.082Z,20.20
2018-06-13T16:15:04.458Z,20.10
2018-06-13T16:17:33.894Z,20.10
2018-06-13T16:20:03.361Z,19.90
2018-06-13T16:22:32.806Z,20.00
2018-06-13T16:25:02.322Z,20.00
2018-06-13T16:27:31.741Z,20.20
2018-06-13T16:30:05.330Z,20.10
2018-06-13T16:32:43.819Z,19.70
2018-06-13T16:35:20.824Z,20.10
2018-06-13T16:37:50.128Z,19.80
2018-06-13T16:40:19.547Z,19.60
2018-06-13T16:42:48.998Z,19.60
2018-06-13T16:45:18.454Z,19.60
2018-06-13T16:47:47.850Z,19.40
2018-06-13T16:50:34.151Z,19.40
2018-06-13T16:53:32.306Z,19.30
2018-06-13T16:56:01.634Z,19.30
2018-06-13T16:58:30.997Z,19.20
2018-06-13T17:01:01.496Z,18.50
2018-06-13T17:03:30.842Z,18.60
2018-06-13T17:06:00.175Z,18.60
2018-06-13T17:08:29.695Z,18.70
2018-06-13T17:11:01.187Z,18.70
2018-06-13T17:13:30.706Z,18.50
2018-06-13T17:16:00.329Z,18.10
2018-06-13T17:18:29.495Z,18.20
2018-06-13T17:20:58.662Z,18.20
2018-06-13T17:23:28.161Z,18.10
2018-06-13T17:25:57.534Z,18.00
2018-06-13T17:28:26.875Z,17.90
2018-06-13T17:31:05.691Z,17.80
2018-06-13T17:33:35.153Z,17.70
2018-06-13T17:36:04.552Z,17.70
2018-06-13T17:38:33.962Z,17.60
2018-06-13T17:41:03.349Z,17.60
2018-06-13T17:43:32.683Z,17.50
2018-06-13T17:46:01.997Z,17.40
2018-06-13T17:48:31.369Z,17.30
2018-06-13T17:51:00.789Z,17.20
2018-06-13T17:53:30.195Z,17.10
2018-06-13T17:55:59.645Z,17.00
2018-06-13T17:58:29.080Z,16.90
2018-06-13T18:01:04.172Z,17.00
2018-06-13T18:03:33.547Z,16.90
2018-06-13T18:06:02.878Z,16.90
2018-06-13T18:08:32.320Z,16.70
2018-06-13T18:13:39.298Z,16.60
2018-06-13T18:16:08.748Z,16.60
2018-06-13T18:18:38.085Z,16.60
2018-06-13T18:21:17.188Z,16.40
2018-06-13T18:23:46.297Z,16.30
2018-06-13T18:26:15.400Z,16.30
2018-06-13T18:28:44.484Z,16.30
2018-06-13T18:31:25.441Z,16.20
2018-06-13T18:33:54.795Z,16.20
2018-06-13T18:38:53.284Z,15.90
2018-06-13T18:43:51.784Z,15.90
2018-06-13T18:46:21.209Z,15.90
2018-06-13T18:48:50.617Z,15.80
2018-06-13T18:51:24.060Z,15.80
2018-06-13T18:53:53.462Z,15.70
2018-06-13T18:58:51.886Z,15.50
2018-06-13T19:01:38.585Z,15.70
2018-06-13T19:04:07.976Z,15.70
2018-06-13T19:06:37.294Z,15.60
2018-06-13T19:09:10.083Z,15.30
2018-06-13T19:11:41.141Z,15.20
2018-06-13T19:14:11.465Z,14.90
2018-06-13T19:16:41.007Z,14.90
2018-06-13T19:19:10.441Z,14.90
2018-06-13T19:21:39.918Z,14.70
2018-06-13T19:24:09.246Z,14.80
2018-06-13T19:26:38.659Z,14.90
2018-06-13T19:29:08.058Z,15.00
2018-06-13T19:31:41.556Z,15.10
2018-06-13T19:34:10.897Z,15.00
2018-06-13T19:36:40.251Z,14.90
2018-06-13T19:39:10.714Z,15.00
2018-06-13T19:41:41.134Z,14.80
2018-06-13T19:44:10.530Z,14.90
2018-06-13T19:46:39.881Z,14.80
2018-06-13T19:49:09.232Z,14.90
2018-06-13T19:51:38.639Z,15.00
2018-06-13T19:54:13.157Z,14.80
2018-06-13T19:56:42.592Z,14.80
2018-06-13T19:59:11.961Z,14.80
2018-06-13T20:01:45.869Z,14.80
2018-06-13T20:04:20.468Z,14.80
2018-06-13T20:06:53.628Z,14.80
2018-06-13T20:09:22.938Z,14.80
2018-06-13T20:11:53.368Z,14.90
2018-06-13T20:14:28.026Z,14.90
2018-06-13T20:17:02.777Z,14.90
2018-06-13T20:19:34.602Z,15.00
2018-06-13T20:22:07.222Z,14.90
2018-06-13T20:24:36.635Z,14.90
2018-06-13T20:27:11.350Z,14.60
2018-06-13T20:29:45.732Z,14.60
2018-06-13T20:32:23.002Z,14.70
2018-06-13T20:37:21.510Z,14.70
2018-06-13T20:42:41.369Z,14.60
2018-06-13T20:45:10.847Z,14.70
2018-06-13T20:47:40.254Z,14.60
2018-06-13T20:50:09.663Z,14.50
2018-06-13T20:52:39.089Z,14.50
2018-06-13T20:55:08.426Z,14.50
2018-06-13T20:57:37.829Z,14.40
2018-06-13T21:00:07.196Z,14.50
2018-06-13T21:02:39.643Z,14.30
2018-06-13T21:05:09.097Z,14.50
2018-06-13T21:07:38.456Z,14.50
2018-06-13T21:10:08.179Z,14.50
2018-06-13T21:12:39.553Z,14.50
2018-06-13T21:15:08.874Z,14.50
2018-06-13T21:17:38.346Z,14.60
2018-06-13T21:20:07.685Z,14.50
2018-06-13T21:22:44.475Z,14.50
2018-06-13T21:25:13.845Z,14.50
2018-06-13T21:27:43.331Z,14.50
2018-06-13T21:30:12.792Z,14.40
2018-06-13T21:32:49.581Z,14.30
2018-06-13T21:35:18.928Z,14.30
2018-06-13T21:37:48.290Z,14.20
2018-06-13T21:40:17.660Z,14.20
2018-06-13T21:42:54.454Z,14.30
2018-06-13T21:45:23.782Z,14.30
2018-06-13T21:47:53.077Z,14.30
2018-06-13T21:50:22.429Z,14.30
2018-06-13T21:52:55.068Z,14.30
2018-06-13T21:55:24.422Z,14.20
2018-06-13T21:57:53.822Z,14.20
2018-06-13T22:00:23.312Z,14.10
2018-06-13T22:02:59.918Z,14.00
2018-06-13T22:05:29.265Z,14.00
2018-06-13T22:07:58.664Z,14.10
2018-06-13T22:10:28.018Z,14.10
2018-06-13T22:13:05.491Z,14.10
2018-06-13T22:15:34.873Z,14.10
2018-06-13T22:18:04.272Z,14.10
2018-06-13T22:20:33.652Z,14.20
2018-06-13T22:23:17.539Z,14.20
2018-06-13T22:25:46.951Z,14.10
2018-06-13T22:28:16.338Z,13.90
2018-06-13T22:30:45.725Z,14.10
2018-06-13T22:33:15.135Z,14.10
2018-06-13T22:35:44.489Z,14.00
2018-06-13T22:38:13.816Z,14.00
2018-06-13T22:40:43.126Z,13.90
2018-06-13T22:43:12.605Z,13.90
2018-06-13T22:45:42.622Z,13.90
2018-06-13T22:50:41.174Z,13.70
2018-06-13T22:53:10.714Z,13.50
2018-06-13T22:55:40.094Z,13.60
2018-06-13T22:58:09.513Z,13.50
2018-06-13T23:00:59.064Z,13.50
2018-06-13T23:03:28.955Z,13.50
2018-06-13T23:05:58.759Z,13.60
2018-06-13T23:08:28.128Z,13.70
2018-06-13T23:10:57.643Z,13.80
2018-06-13T23:13:27.080Z,13.80
2018-06-13T23:18:27.425Z,13.80
2018-06-13T23:21:20.261Z,13.80
2018-06-13T23:23:49.653Z,13.80
2018-06-13T23:26:19.012Z,13.80
2018-06-13T23:28:48.414Z,13.80
2018-06-13T23:31:44.537Z,13.80
2018-06-13T23:34:13.865Z,13.80
2018-06-13T23:36:43.178Z,13.80
2018-06-13T23:39:12.691Z,13.70
2018-06-13T23:41:47.137Z,13.50
2018-06-13T23:44:16.580Z,13.40
2018-06-13T23:46:45.943Z,13.50
2018-06-13T23:49:15.334Z,13.50
2018-06-13T23:51:47.995Z,13.40
2018-06-13T23:54:17.397Z,13.40
2018-06-13T23:56:46.732Z,13.50
2018-06-13T23:59:16.010Z,13.40
